Check out our new PWSWeather beta!
PWSweather.com
Personal Weather Stations
Station Observations
METEOC500
Santo Antonio, FunchalPT 2020

Santo AntonioFunchalPT 2020

Lat: 32.678227, Lon: -16.945054

Elevation: 1669.94751

Station Type: WH Series

High Low Average
Temperature 61.9°F16.6°C 50.5°F10.3°C 55.3°F12.9°C
Dew Point 52.5°F11.4°C 43.3°F6.3°C 47.7°F8.7°C
Winds 9.2 mph 14.8 kmh Calm Calm 4.0 mph WSW6.4 kmh WSW
Wind Gusts 17.4 mph28.0 kmh -- 10.0 mph16.1 kmh
Humidity 86% 62% 76%
Pressure 30.51 in1033.2 mb 30.42 in1030.1 mb -
Precipitation 0.00 in0.0 mm - -
Hour Temp Dew Point Humidity Winds Wind Gusts Pressure Precip Precip Rate Daily Precip Total
12:00 AM 52.2°F11.2°C 45.5°F7.5°C 78% 4.7 mph NNW7.6 kmh NNW 7.6 mph12.2 kmh 30.47 in1031.8 mb 0.00 in0.0 mm 0.00 in0.0 mm 0.00 in0.0 mm
12:15 AM 52.2°F11.2°C 45.5°F7.5°C 78% 3.1 mph NW5.0 kmh NW 7.6 mph12.2 kmh 30.47 in1031.8 mb 0.00 in0.0 mm 0.00 in0.0 mm 0.00 in0.0 mm
12:30 AM 52.0°F11.1°C 45.0°F7.2°C 77% 6.3 mph N10.1 kmh N 7.6 mph12.2 kmh 30.46 in1031.5 mb 0.00 in0.0 mm 0.00 in0.0 mm 0.00 in0.0 mm
12:45 AM 51.8°F11.0°C 44.8°F7.1°C 77% 5.6 mph N9.0 kmh N 10.1 mph16.3 kmh 30.47 in1031.8 mb 0.00 in0.0 mm 0.00 in0.0 mm 0.00 in0.0 mm
01:00 AM 51.6°F10.9°C 44.6°F7.0°C 77% 4.9 mph NNW7.9 kmh NNW 10.1 mph16.3 kmh 30.47 in1031.8 mb 0.00 in0.0 mm 0.00 in0.0 mm 0.00 in0.0 mm
01:15 AM 51.6°F10.9°C 44.6°F7.0°C 77% 6.0 mph N9.7 kmh N 10.1 mph16.3 kmh 30.47 in1031.8 mb 0.00 in0.0 mm 0.00 in0.0 mm 0.00 in0.0 mm
01:30 AM 52.0°F11.1°C 44.6°F7.0°C 76% 4.7 mph NNW7.6 kmh NNW 7.6 mph12.2 kmh 30.47 in1031.8 mb 0.00 in0.0 mm 0.00 in0.0 mm 0.00 in0.0 mm
01:45 AM 52.2°F11.2°C 45.1°F7.3°C 77% 3.1 mph N5.0 kmh N 7.6 mph12.2 kmh 30.46 in1031.5 mb 0.00 in0.0 mm 0.00 in0.0 mm 0.00 in0.0 mm
02:00 AM 52.3°F11.3°C 45.3°F7.4°C 77% 3.4 mph NNW5.5 kmh NNW 4.9 mph7.9 kmh 30.46 in1031.5 mb 0.00 in0.0 mm 0.00 in0.0 mm 0.00 in0.0 mm
02:15 AM 52.3°F11.3°C 45.7°F7.6°C 78% 2.5 mph N4.0 kmh N 7.6 mph12.2 kmh 30.45 in1031.2 mb 0.00 in0.0 mm 0.00 in0.0 mm 0.00 in0.0 mm
02:31 AM 52.2°F11.2°C 45.5°F7.5°C 78% 3.1 mph N5.0 kmh N 7.6 mph12.2 kmh 30.45 in1031.2 mb 0.00 in0.0 mm 0.00 in0.0 mm 0.00 in0.0 mm
02:46 AM 52.0°F11.1°C 44.6°F7.0°C 76% 5.6 mph N9.0 kmh N 7.6 mph12.2 kmh 30.45 in1031.2 mb 0.00 in0.0 mm 0.00 in0.0 mm 0.00 in0.0 mm
03:01 AM 52.0°F11.1°C 45.0°F7.2°C 77% 7.8 mph NNW12.6 kmh NNW 10.1 mph16.3 kmh 30.44 in1030.8 mb 0.00 in0.0 mm 0.00 in0.0 mm 0.00 in0.0 mm
03:16 AM 51.6°F10.9°C 44.6°F7.0°C 77% 7.2 mph N11.6 kmh N 10.1 mph16.3 kmh 30.45 in1031.2 mb 0.00 in0.0 mm 0.00 in0.0 mm 0.00 in0.0 mm
03:31 AM 51.3°F10.7°C 44.6°F7.0°C 78% 4.9 mph N7.9 kmh N 10.1 mph16.3 kmh 30.44 in1030.8 mb 0.00 in0.0 mm 0.00 in0.0 mm 0.00 in0.0 mm
03:46 AM 51.3°F10.7°C 44.6°F7.0°C 78% 6.3 mph N10.1 kmh N 10.1 mph16.3 kmh 30.44 in1030.8 mb 0.00 in0.0 mm 0.00 in0.0 mm 0.00 in0.0 mm
04:01 AM 51.3°F10.7°C 45.0°F7.2°C 79% 6.0 mph NNW9.7 kmh NNW 10.1 mph16.3 kmh 30.44 in1030.8 mb 0.00 in0.0 mm 0.00 in0.0 mm 0.00 in0.0 mm
04:16 AM 51.4°F10.8°C 44.8°F7.1°C 78% 5.4 mph N8.7 kmh N 10.1 mph16.3 kmh 30.44 in1030.8 mb 0.00 in0.0 mm 0.00 in0.0 mm 0.00 in0.0 mm
04:31 AM 51.4°F10.8°C 44.4°F6.9°C 77% 6.3 mph N10.1 kmh N 7.6 mph12.2 kmh 30.44 in1030.8 mb 0.00 in0.0 mm 0.00 in0.0 mm 0.00 in0.0 mm
04:46 AM 51.4°F10.8°C 44.4°F6.9°C 77% 6.3 mph N10.1 kmh N 10.1 mph16.3 kmh 30.44 in1030.8 mb 0.00 in0.0 mm 0.00 in0.0 mm 0.00 in0.0 mm
05:01 AM 51.3°F10.7°C 44.2°F6.8°C 77% 5.6 mph N9.0 kmh N 12.5 mph20.1 kmh 30.44 in1030.8 mb 0.00 in0.0 mm 0.00 in0.0 mm 0.00 in0.0 mm
05:16 AM 51.3°F10.7°C 44.6°F7.0°C 78% 7.2 mph N11.6 kmh N 10.1 mph16.3 kmh 30.44 in1030.8 mb 0.00 in0.0 mm 0.00 in0.0 mm 0.00 in0.0 mm
05:31 AM 51.3°F10.7°C 44.2°F6.8°C 77% 6.3 mph N10.1 kmh N 10.1 mph16.3 kmh 30.45 in1031.2 mb 0.00 in0.0 mm 0.00 in0.0 mm 0.00 in0.0 mm
05:47 AM 51.1°F10.6°C 44.4°F6.9°C 78% 6.3 mph N10.1 kmh N 10.1 mph16.3 kmh 30.45 in1031.2 mb 0.00 in0.0 mm 0.00 in0.0 mm 0.00 in0.0 mm
06:02 AM 50.7°F10.4°C 44.4°F6.9°C 79% 7.6 mph N12.2 kmh N 10.1 mph16.3 kmh 30.45 in1031.2 mb 0.00 in0.0 mm 0.00 in0.0 mm 0.00 in0.0 mm
06:17 AM 50.5°F10.3°C 43.9°F6.6°C 78% 7.6 mph NNW12.2 kmh NNW 10.1 mph16.3 kmh 30.46 in1031.5 mb 0.00 in0.0 mm 0.00 in0.0 mm 0.00 in0.0 mm
06:32 AM 50.7°F10.4°C 44.1°F6.7°C 78% 6.3 mph N10.1 kmh N 10.1 mph16.3 kmh 30.46 in1031.5 mb 0.00 in0.0 mm 0.00 in0.0 mm 0.00 in0.0 mm
06:47 AM 50.9°F10.5°C 44.2°F6.8°C 78% 6.9 mph N11.1 kmh N 10.1 mph16.3 kmh 30.45 in1031.2 mb 0.00 in0.0 mm 0.00 in0.0 mm 0.00 in0.0 mm
07:02 AM 50.9°F10.5°C 44.2°F6.8°C 78% 4.9 mph N7.9 kmh N 10.1 mph16.3 kmh 30.45 in1031.2 mb 0.00 in0.0 mm 0.00 in0.0 mm 0.00 in0.0 mm
07:17 AM 50.9°F10.5°C 43.5°F6.4°C 76% 5.6 mph N9.0 kmh N 12.5 mph20.1 kmh 30.45 in1031.2 mb 0.00 in0.0 mm 0.00 in0.0 mm 0.00 in0.0 mm
07:32 AM 51.1°F10.6°C 43.5°F6.4°C 75% 6.3 mph NW10.1 kmh NW 10.1 mph16.3 kmh 30.45 in1031.2 mb 0.00 in0.0 mm 0.00 in0.0 mm 0.00 in0.0 mm
07:47 AM 51.1°F10.6°C 43.7°F6.5°C 76% 6.5 mph N10.5 kmh N 10.1 mph16.3 kmh 30.45 in1031.2 mb 0.00 in0.0 mm 0.00 in0.0 mm 0.00 in0.0 mm
08:02 AM 51.3°F10.7°C 43.3°F6.3°C 74% 6.0 mph N9.7 kmh N 10.1 mph16.3 kmh 30.45 in1031.2 mb 0.00 in0.0 mm 0.00 in0.0 mm 0.00 in0.0 mm
08:17 AM 51.8°F11.0°C 43.3°F6.3°C 73% 4.5 mph N7.2 kmh N 12.5 mph20.1 kmh 30.46 in1031.5 mb 0.00 in0.0 mm 0.00 in0.0 mm 0.00 in0.0 mm
08:32 AM 52.3°F11.3°C 44.2°F6.8°C 74% 5.4 mph N8.7 kmh N 10.1 mph16.3 kmh 30.46 in1031.5 mb 0.00 in0.0 mm 0.00 in0.0 mm 0.00 in0.0 mm
08:47 AM 52.7°F11.5°C 44.6°F7.0°C 74% 4.7 mph N7.6 kmh N 7.6 mph12.2 kmh 30.47 in1031.8 mb 0.00 in0.0 mm 0.00 in0.0 mm 0.00 in0.0 mm
09:02 AM 53.2°F11.8°C 45.1°F7.3°C 74% 3.4 mph N5.5 kmh N 7.6 mph12.2 kmh 30.47 in1031.8 mb 0.00 in0.0 mm 0.00 in0.0 mm 0.00 in0.0 mm
09:18 AM 54.3°F12.4°C 45.5°F7.5°C 72% 2.5 mph N4.0 kmh N 4.9 mph7.9 kmh 30.47 in1031.8 mb 0.00 in0.0 mm 0.00 in0.0 mm 0.00 in0.0 mm
09:33 AM 56.5°F13.6°C 44.4°F6.9°C 64% 1.8 mph S2.9 kmh S 7.6 mph12.2 kmh 30.47 in1031.8 mb 0.00 in0.0 mm 0.00 in0.0 mm 0.00 in0.0 mm
09:48 AM 58.8°F14.9°C 46.2°F7.9°C 63% Calm Calm 7.6 mph12.2 kmh 30.47 in1031.8 mb 0.00 in0.0 mm 0.00 in0.0 mm 0.00 in0.0 mm
10:03 AM 59.5°F15.3°C 46.6°F8.1°C 62% 1.3 mph SE2.1 kmh SE 10.1 mph16.3 kmh 30.47 in1031.8 mb 0.00 in0.0 mm 0.00 in0.0 mm 0.00 in0.0 mm
10:18 AM 59.5°F15.3°C 46.6°F8.1°C 62% 1.6 mph SE2.6 kmh SE 7.6 mph12.2 kmh 30.48 in1032.2 mb 0.00 in0.0 mm 0.00 in0.0 mm 0.00 in0.0 mm
10:33 AM 59.5°F15.3°C 46.6°F8.1°C 62% 0.9 mph SE1.4 kmh SE 10.1 mph16.3 kmh 30.47 in1031.8 mb 0.00 in0.0 mm 0.00 in0.0 mm 0.00 in0.0 mm
10:48 AM 59.7°F15.4°C 48.0°F8.9°C 65% 5.6 mph SSE9.0 kmh SSE 12.5 mph20.1 kmh 30.48 in1032.2 mb 0.00 in0.0 mm 0.00 in0.0 mm 0.00 in0.0 mm
11:03 AM 59.5°F15.3°C 48.2°F9.0°C 66% 4.0 mph SSE6.4 kmh SSE 12.5 mph20.1 kmh 30.47 in1031.8 mb 0.00 in0.0 mm 0.00 in0.0 mm 0.00 in0.0 mm
11:18 AM 60.1°F15.6°C 48.2°F9.0°C 65% 4.9 mph SE7.9 kmh SE 12.5 mph20.1 kmh 30.47 in1031.8 mb 0.00 in0.0 mm 0.00 in0.0 mm 0.00 in0.0 mm
11:33 AM 60.6°F15.9°C 48.4°F9.1°C 64% 7.8 mph S12.6 kmh S 12.5 mph20.1 kmh 30.47 in1031.8 mb 0.00 in0.0 mm 0.00 in0.0 mm 0.00 in0.0 mm
11:48 AM 60.8°F16.0°C 49.8°F9.9°C 67% 3.8 mph ESE6.1 kmh ESE 12.5 mph20.1 kmh 30.47 in1031.8 mb 0.00 in0.0 mm 0.00 in0.0 mm 0.00 in0.0 mm
12:03 PM 60.8°F16.0°C 49.5°F9.7°C 66% 7.2 mph S11.6 kmh S 12.5 mph20.1 kmh 30.46 in1031.5 mb 0.00 in0.0 mm 0.00 in0.0 mm 0.00 in0.0 mm
12:19 PM 60.4°F15.8°C 49.1°F9.5°C 66% 4.9 mph SSE7.9 kmh SSE 12.5 mph20.1 kmh 30.46 in1031.5 mb 0.00 in0.0 mm 0.00 in0.0 mm 0.00 in0.0 mm
12:34 PM 61.2°F16.2°C 49.3°F9.6°C 65% 6.0 mph ESE9.7 kmh ESE 15.0 mph24.1 kmh 30.45 in1031.2 mb 0.00 in0.0 mm 0.00 in0.0 mm 0.00 in0.0 mm
12:49 PM 61.9°F16.6°C 51.3°F10.7°C 68% 3.8 mph E6.1 kmh E 15.0 mph24.1 kmh 30.45 in1031.2 mb 0.00 in0.0 mm 0.00 in0.0 mm 0.00 in0.0 mm
01:04 PM 61.9°F16.6°C 50.0°F10.0°C 65% 5.4 mph E8.7 kmh E 12.5 mph20.1 kmh 30.45 in1031.2 mb 0.00 in0.0 mm 0.00 in0.0 mm 0.00 in0.0 mm
01:19 PM 61.5°F16.4°C 50.9°F10.5°C 68% 4.7 mph SSE7.6 kmh SSE 12.5 mph20.1 kmh 30.45 in1031.2 mb 0.00 in0.0 mm 0.00 in0.0 mm 0.00 in0.0 mm
01:34 PM 61.0°F16.1°C 50.4°F10.2°C 68% 9.2 mph SE14.8 kmh SE 12.5 mph20.1 kmh 30.44 in1030.8 mb 0.00 in0.0 mm 0.00 in0.0 mm 0.00 in0.0 mm
01:49 PM 60.3°F15.7°C 49.6°F9.8°C 68% 1.6 mph SE2.6 kmh SE 15.0 mph24.1 kmh 30.44 in1030.8 mb 0.00 in0.0 mm 0.00 in0.0 mm 0.00 in0.0 mm
02:04 PM 60.3°F15.7°C 50.4°F10.2°C 70% 6.9 mph S11.1 kmh S 17.4 mph28.0 kmh 30.44 in1030.8 mb 0.00 in0.0 mm 0.00 in0.0 mm 0.00 in0.0 mm
02:19 PM 61.2°F16.2°C 51.3°F10.7°C 70% 6.3 mph S10.1 kmh S 17.4 mph28.0 kmh 30.43 in1030.5 mb 0.00 in0.0 mm 0.00 in0.0 mm 0.00 in0.0 mm
02:34 PM 61.7°F16.5°C 51.1°F10.6°C 68% 7.6 mph SE12.2 kmh SE 17.4 mph28.0 kmh 30.43 in1030.5 mb 0.00 in0.0 mm 0.00 in0.0 mm 0.00 in0.0 mm
02:49 PM 61.5°F16.4°C 52.3°F11.3°C 72% 6.0 mph S9.7 kmh S 17.4 mph28.0 kmh 30.42 in1030.1 mb 0.00 in0.0 mm 0.00 in0.0 mm 0.00 in0.0 mm
03:05 PM 61.7°F16.5°C 51.1°F10.6°C 68% 4.9 mph S7.9 kmh S 12.5 mph20.1 kmh 30.42 in1030.1 mb 0.00 in0.0 mm 0.00 in0.0 mm 0.00 in0.0 mm
03:20 PM 61.5°F16.4°C 51.6°F10.9°C 70% 3.8 mph S6.1 kmh S 12.5 mph20.1 kmh 30.42 in1030.1 mb 0.00 in0.0 mm 0.00 in0.0 mm 0.00 in0.0 mm
03:35 PM 61.3°F16.3°C 51.4°F10.8°C 70% 5.4 mph SE8.7 kmh SE 15.0 mph24.1 kmh 30.42 in1030.1 mb 0.00 in0.0 mm 0.00 in0.0 mm 0.00 in0.0 mm
03:50 PM 61.2°F16.2°C 52.5°F11.4°C 73% 8.7 mph SSE14.0 kmh SSE 15.0 mph24.1 kmh 30.43 in1030.5 mb 0.00 in0.0 mm 0.00 in0.0 mm 0.00 in0.0 mm
04:05 PM 59.7°F15.4°C 51.8°F11.0°C 75% 2.5 mph S4.0 kmh S 12.5 mph20.1 kmh 30.42 in1030.1 mb 0.00 in0.0 mm 0.00 in0.0 mm 0.00 in0.0 mm
04:20 PM 58.3°F14.6°C 50.7°F10.4°C 76% 4.7 mph SSE7.6 kmh SSE 10.1 mph16.3 kmh 30.42 in1030.1 mb 0.00 in0.0 mm 0.00 in0.0 mm 0.00 in0.0 mm
04:35 PM 57.9°F14.4°C 50.4°F10.2°C 76% 3.4 mph S5.5 kmh S 12.5 mph20.1 kmh 30.43 in1030.5 mb 0.00 in0.0 mm 0.00 in0.0 mm 0.00 in0.0 mm
04:50 PM 57.7°F14.3°C 50.5°F10.3°C 77% 3.1 mph S5.0 kmh S 12.5 mph20.1 kmh 30.42 in1030.1 mb 0.00 in0.0 mm 0.00 in0.0 mm 0.00 in0.0 mm
05:05 PM 57.4°F14.1°C 50.5°F10.3°C 78% 3.8 mph SSW6.1 kmh SSW 10.1 mph16.3 kmh 30.42 in1030.1 mb 0.00 in0.0 mm 0.00 in0.0 mm 0.00 in0.0 mm
05:20 PM 57.6°F14.2°C 50.4°F10.2°C 77% 2.5 mph SSE4.0 kmh SSE 10.1 mph16.3 kmh 30.42 in1030.1 mb 0.00 in0.0 mm 0.00 in0.0 mm 0.00 in0.0 mm
05:35 PM 57.6°F14.2°C 51.1°F10.6°C 79% 4.0 mph SE6.4 kmh SE 7.6 mph12.2 kmh 30.42 in1030.1 mb 0.00 in0.0 mm 0.00 in0.0 mm 0.00 in0.0 mm
05:51 PM 57.6°F14.2°C 50.7°F10.4°C 78% 3.4 mph ESE5.5 kmh ESE 7.6 mph12.2 kmh 30.42 in1030.1 mb 0.00 in0.0 mm 0.00 in0.0 mm 0.00 in0.0 mm
06:06 PM 57.2°F14.0°C 51.1°F10.6°C 80% 0.7 mph SW1.1 kmh SW 7.6 mph12.2 kmh 30.43 in1030.5 mb 0.00 in0.0 mm 0.00 in0.0 mm 0.00 in0.0 mm
06:21 PM 56.8°F13.8°C 50.7°F10.4°C 80% 1.8 mph S2.9 kmh S 7.6 mph12.2 kmh 30.43 in1030.5 mb 0.00 in0.0 mm 0.00 in0.0 mm 0.00 in0.0 mm
06:36 PM 56.7°F13.7°C 50.9°F10.5°C 81% 3.1 mph SSW5.0 kmh SSW 7.6 mph12.2 kmh 30.43 in1030.5 mb 0.00 in0.0 mm 0.00 in0.0 mm 0.00 in0.0 mm
06:51 PM 56.3°F13.5°C 50.5°F10.3°C 81% 4.5 mph SE7.2 kmh SE 10.1 mph16.3 kmh 30.44 in1030.8 mb 0.00 in0.0 mm 0.00 in0.0 mm 0.00 in0.0 mm
07:06 PM 56.1°F13.4°C 51.1°F10.6°C 83% 2.2 mph SSW3.5 kmh SSW 10.1 mph16.3 kmh 30.45 in1031.2 mb 0.00 in0.0 mm 0.00 in0.0 mm 0.00 in0.0 mm
07:21 PM 55.9°F13.3°C 51.3°F10.7°C 84% Calm Calm 2.5 mph4.0 kmh 30.45 in1031.2 mb 0.00 in0.0 mm 0.00 in0.0 mm 0.00 in0.0 mm
07:36 PM 55.6°F13.1°C 50.9°F10.5°C 84% 1.6 mph SE2.6 kmh SE 4.9 mph7.9 kmh 30.45 in1031.2 mb 0.00 in0.0 mm 0.00 in0.0 mm 0.00 in0.0 mm
07:51 PM 55.6°F13.1°C 51.1°F10.6°C 85% Calm Calm 2.5 mph4.0 kmh 30.45 in1031.2 mb 0.00 in0.0 mm 0.00 in0.0 mm 0.00 in0.0 mm
08:06 PM 55.2°F12.9°C 50.7°F10.4°C 85% Calm Calm -- 30.45 in1031.2 mb 0.00 in0.0 mm 0.00 in0.0 mm 0.00 in0.0 mm
08:21 PM 54.9°F12.7°C 50.7°F10.4°C 86% Calm Calm 2.5 mph4.0 kmh 30.46 in1031.5 mb 0.00 in0.0 mm 0.00 in0.0 mm 0.00 in0.0 mm
08:37 PM 54.5°F12.5°C 50.0°F10.0°C 85% 1.3 mph NNW2.1 kmh NNW 2.5 mph4.0 kmh 30.47 in1031.8 mb 0.00 in0.0 mm 0.00 in0.0 mm 0.00 in0.0 mm
08:52 PM 54.5°F12.5°C 49.8°F9.9°C 84% Calm Calm 4.9 mph7.9 kmh 30.48 in1032.2 mb 0.00 in0.0 mm 0.00 in0.0 mm 0.00 in0.0 mm
09:07 PM 54.7°F12.6°C 50.2°F10.1°C 85% Calm Calm -- 30.48 in1032.2 mb 0.00 in0.0 mm 0.00 in0.0 mm 0.00 in0.0 mm
09:22 PM 54.5°F12.5°C 49.5°F9.7°C 83% 3.4 mph NNW5.5 kmh NNW 4.9 mph7.9 kmh 30.49 in1032.5 mb 0.00 in0.0 mm 0.00 in0.0 mm 0.00 in0.0 mm
09:37 PM 54.0°F12.2°C 48.6°F9.2°C 82% 3.8 mph N6.1 kmh N 7.6 mph12.2 kmh 30.49 in1032.5 mb 0.00 in0.0 mm 0.00 in0.0 mm 0.00 in0.0 mm
09:52 PM 53.8°F12.1°C 48.7°F9.3°C 83% 2.2 mph NNW3.5 kmh NNW 4.9 mph7.9 kmh 30.50 in1032.8 mb 0.00 in0.0 mm 0.00 in0.0 mm 0.00 in0.0 mm
10:07 PM 53.8°F12.1°C 49.1°F9.5°C 84% 1.3 mph NNW2.1 kmh NNW 4.9 mph7.9 kmh 30.50 in1032.8 mb 0.00 in0.0 mm 0.00 in0.0 mm 0.00 in0.0 mm
10:22 PM 53.8°F12.1°C 49.1°F9.5°C 84% 2.9 mph N4.7 kmh N 7.6 mph12.2 kmh 30.50 in1032.8 mb 0.00 in0.0 mm 0.00 in0.0 mm 0.00 in0.0 mm
10:37 PM 53.4°F11.9°C 48.4°F9.1°C 83% 6.5 mph NNW10.5 kmh NNW 10.1 mph16.3 kmh 30.50 in1032.8 mb 0.00 in0.0 mm 0.00 in0.0 mm 0.00 in0.0 mm
10:52 PM 53.1°F11.7°C 48.4°F9.1°C 84% 6.9 mph N11.1 kmh N 10.1 mph16.3 kmh 30.51 in1033.2 mb 0.00 in0.0 mm 0.00 in0.0 mm 0.00 in0.0 mm
11:07 PM 52.9°F11.6°C 48.2°F9.0°C 84% 4.7 mph NW7.6 kmh NW 10.1 mph16.3 kmh 30.51 in1033.2 mb 0.00 in0.0 mm 0.00 in0.0 mm 0.00 in0.0 mm
11:22 PM 52.7°F11.5°C 48.4°F9.1°C 85% 4.9 mph NNW7.9 kmh NNW 7.6 mph12.2 kmh 30.51 in1033.2 mb 0.00 in0.0 mm 0.00 in0.0 mm 0.00 in0.0 mm
11:38 PM 52.5°F11.4°C 48.2°F9.0°C 85% 5.6 mph NNW9.0 kmh NNW 10.1 mph16.3 kmh 30.51 in1033.2 mb 0.00 in0.0 mm 0.00 in0.0 mm 0.00 in0.0 mm
11:53 PM 52.5°F11.4°C 48.2°F9.0°C 85% 4.5 mph NNW7.2 kmh NNW 7.6 mph12.2 kmh 30.51 in1033.2 mb 0.00 in0.0 mm 0.00 in0.0 mm 0.00 in0.0 mm